Pisek, North Dakota
Current Conditions -  °F | °C
As of 5:58 AM on Saturday 20 Dec 2014 (Local Time) from KRDR Reporting Station
Overcast Overcast  
Wind Chill: 21°   Ceiling: 500
Heat Index: 27°   Visibility: 7mi
Dew Point: 27°   Wind: 6mph
Humidity: 100%   Direction: 200°SSW
Pressure: 29.99"   Gusts: NA
Location:  48.31°N, 97.71°W
Report Text: KRDR 201158Z AUTO 20005KT 7SM R35/5000FT OVC005 M03/M03 A2999 RMK AO2 SLP174 T10261026 11015 21026 56005
Loading
Personal Weather Stations






























Interactive Weather Map New forecast layout! Learn more

10-Day Weather Forecast

Advertisements
Track Severe Weather on mobile